Time;durP1;ratioP1;P1;durP2;ratioP2;P2;SDS_P1;SDS_P2;PMS_P1;PMS_P2;Temp;Humidity;BMP_temperature;BMP_pressure;BME280_temperature;BME280_humidity;BME280_pressure;Samples;Min_cycle;Max_cycle;Signal;HPM_P1;HPM_P2
2022/08/09 05:01:14;;;;;;;;;7.50;7.00;;;;;20.53;50.20;102190.59;2455970;23;45663;-84
2022/08/09 05:02:24;;;;;;;;;9.25;6.25;;;;;20.54;50.42;102191.47;2383779;28;45467;-86
2022/08/09 05:03:35;;;;;;;;;6.25;6.25;;;;;20.53;50.58;102193.25;2379174;28;44795;-85
2022/08/09 05:04:45;;;;;;;;;7.00;7.00;;;;;20.52;50.44;102188.84;2373230;28;46838;-87
2022/08/09 05:05:56;;;;;;;;;7.75;6.00;;;;;20.52;50.75;102185.34;2381823;28;45710;-86
2022/08/09 05:07:06;;;;;;;;;10.00;7.00;;;;;20.53;50.98;102184.38;2385137;28;45516;-87
2022/08/09 05:08:16;;;;;;;;;5.75;5.50;;;;;20.52;51.09;102190.69;2374078;28;45326;-87
2022/08/09 05:09:29;;;;;;;;;7.25;6.75;;;;;20.52;50.37;102188.00;2369865;28;48289;-87
2022/08/09 05:10:40;;;;;;;;;8.50;8.00;;;;;20.51;50.57;102186.28;2377978;28;45364;-87
2022/08/09 05:11:50;;;;;;;;;6.75;6.75;;;;;20.49;50.77;102186.38;2384417;28;45438;-88
2022/08/09 05:13:01;;;;;;;;;7.00;6.00;;;;;20.48;50.96;102200.66;2385376;28;45327;-87
2022/08/09 05:14:11;;;;;;;;;5.50;5.50;;;;;20.45;50.75;102192.78;2375122;28;46380;-87
2022/08/09 05:15:23;;;;;;;;;6.00;6.00;;;;;20.44;50.69;102191.97;2368539;28;44689;-87
2022/08/09 05:16:34;;;;;;;;;5.75;5.25;;;;;20.42;51.00;102196.47;2375752;28;45232;-87
2022/08/09 05:17:45;;;;;;;;;8.00;6.25;;;;;20.43;50.92;102200.91;2368087;28;45362;-86
2022/08/09 05:18:55;;;;;;;;;8.00;6.50;;;;;20.44;50.99;102196.41;2368746;28;48078;-87
2022/08/09 05:20:06;;;;;;;;;8.75;7.00;;;;;20.44;50.77;102186.63;2377983;28;45252;-83
2022/08/09 05:21:17;;;;;;;;;8.25;6.75;;;;;20.48;51.40;102192.63;2378095;28;46488;-81
2022/08/09 05:22:27;;;;;;;;;8.75;7.00;;;;;20.48;50.72;102194.44;2375953;28;45434;-88
2022/08/09 05:23:37;;;;;;;;;8.00;6.75;;;;;20.50;50.77;102192.53;2365736;29;47051;-87
2022/08/09 05:24:48;;;;;;;;;8.00;8.00;;;;;20.52;50.61;102193.34;2368910;28;44675;-86
2022/08/09 05:25:58;;;;;;;;;8.75;7.25;;;;;20.55;50.54;102199.38;2375746;28;46371;-86
2022/08/09 05:27:09;;;;;;;;;7.75;7.00;;;;;20.58;50.83;102203.69;2375825;28;45325;-87
2022/08/09 05:28:19;;;;;;;;;7.25;6.75;;;;;20.56;50.94;102201.13;2365660;29;46342;-85
2022/08/09 05:29:30;;;;;;;;;9.00;6.75;;;;;20.54;50.99;102202.16;2359323;29;45222;-86
2022/08/09 05:30:40;;;;;;;;;7.50;6.75;;;;;20.56;50.42;102200.25;2358862;29;47204;-87
2022/08/09 05:31:52;;;;;;;;;7.00;7.00;;;;;20.58;51.16;102203.69;2368657;28;45390;-88
2022/08/09 05:33:02;;;;;;;;;9.25;7.75;;;;;20.58;51.01;102206.38;2375721;28;46309;-86
2022/08/09 05:34:14;;;;;;;;;7.00;7.00;;;;;20.59;50.51;102202.78;2375906;28;44704;-86
2022/08/09 05:35:25;;;;;;;;;10.50;8.50;;;;;20.61;50.57;102206.22;2373063;28;46238;-85
2022/08/09 05:36:35;;;;;;;;;8.75;6.75;;;;;20.63;50.55;102207.00;2387560;28;45417;-84
2022/08/09 05:37:47;;;;;;;;;7.50;6.75;;;;;20.64;50.57;102205.19;2390627;28;46426;-85
2022/08/09 05:38:57;;;;;;;;;9.00;6.00;;;;;20.63;50.90;102207.00;2385009;28;45244;-86
2022/08/09 05:40:08;;;;;;;;;11.50;8.25;;;;;20.64;50.78;102207.88;2384993;28;45301;-86
2022/08/09 05:41:19;;;;;;;;;10.00;8.00;;;;;20.62;50.85;102209.75;2386298;28;45420;-86
2022/08/09 05:42:29;;;;;;;;;8.50;6.75;;;;;20.61;50.63;102203.56;2392720;28;47876;-86
2022/08/09 05:43:39;;;;;;;;;6.75;6.75;;;;;20.62;50.60;102210.59;2393370;28;45299;-85
2022/08/09 05:44:51;;;;;;;;;7.25;6.75;;;;;20.64;50.88;102208.72;2394118;28;45272;-84
2022/08/09 05:46:02;;;;;;;;;10.25;7.75;;;;;20.66;50.87;102211.31;2393959;28;45290;-85
2022/08/09 05:47:12;;;;;;;;;6.00;6.00;;;;;20.67;50.58;102208.56;2394208;28;46375;-86
2022/08/09 05:48:23;;;;;;;;;8.25;7.00;;;;;20.66;50.52;102211.31;2394339;28;45236;-86
2022/08/09 05:49:33;;;;;;;;;7.75;7.25;;;;;20.67;51.12;102207.69;2393350;28;45243;-87
2022/08/09 05:50:43;;;;;;;;;8.75;8.00;;;;;20.65;50.63;102205.09;2394095;28;44620;-86
2022/08/09 05:51:54;;;;;;;;;7.25;6.75;;;;;20.63;50.78;102204.31;2383892;28;48071;-82
2022/08/09 05:53:04;;;;;;;;;5.75;5.00;;;;;20.65;50.99;102218.47;2378429;28;45779;-83
2022/08/09 05:54:14;;;;;;;;;8.00;7.25;;;;;20.64;50.66;102206.03;2376487;28;47015;-83
2022/08/09 05:55:25;;;;;;;;;6.25;6.25;;;;;20.63;50.64;102209.66;2383839;28;45342;-83
2022/08/09 05:56:35;;;;;;;;;4.25;3.50;;;;;20.65;50.77;102213.13;2386994;28;45452;-83
2022/08/09 05:57:46;;;;;;;;;8.25;7.50;;;;;20.66;50.88;102214.84;2393087;28;45321;-88
2022/08/09 05:58:56;;;;;;;;;9.25;7.50;;;;;20.66;50.82;102217.53;2381626;28;46953;-84
2022/08/09 06:00:07;;;;;;;;;9.25;9.00;;;;;20.66;50.97;102214.84;2380265;28;45477;-84
2022/08/09 06:01:18;;;;;;;;;7.50;7.25;;;;;20.67;50.72;102218.38;2393037;28;45420;-83
2022/08/09 06:02:28;;;;;;;;;7.50;7.00;;;;;20.68;51.18;102214.75;2393704;28;45485;-84
2022/08/09 06:03:38;;;;;;;;;9.00;7.00;;;;;20.68;51.05;102212.09;2393526;28;45443;-85
2022/08/09 06:04:49;;;;;;;;;8.00;8.00;;;;;20.68;50.65;102215.63;2383310;28;45458;-84
2022/08/09 06:05:59;;;;;;;;;7.25;7.25;;;;;20.67;50.78;102208.56;2385938;28;46187;-88
2022/08/09 06:07:09;;;;;;;;;7.75;6.25;;;;;20.68;50.98;102212.97;2383960;28;45490;-87
2022/08/09 06:08:20;;;;;;;;;8.00;7.75;;;;;20.70;50.72;102207.53;2384157;28;45425;-85
2022/08/09 06:09:30;;;;;;;;;6.75;6.75;;;;;20.69;51.22;102217.34;2391110;28;44712;-85
2022/08/09 06:10:41;;;;;;;;;10.00;7.25;;;;;20.68;50.32;102215.63;2393751;28;45151;-85
2022/08/09 06:11:51;;;;;;;;;11.00;8.75;;;;;20.67;50.82;102216.56;2384137;28;44585;-85
2022/08/09 06:13:01;;;;;;;;;8.25;6.00;;;;;20.66;50.82;102217.53;2386232;28;45483;-80
2022/08/09 06:14:12;;;;;;;;;11.25;10.00;;;;;20.63;51.22;102223.03;2391008;28;45353;-80
2022/08/09 06:15:22;;;;;;;;;10.50;9.25;;;;;20.64;51.52;102229.25;2384492;28;46668;-79
2022/08/09 06:16:32;;;;;;;;;8.00;8.00;;;;;20.60;50.75;102220.50;2385678;28;45231;-79
2022/08/09 06:17:43;;;;;;;;;6.00;5.25;;;;;20.63;50.63;102225.69;2393834;28;46329;-83
2022/08/09 06:18:53;;;;;;;;;9.25;7.25;;;;;20.62;51.55;102223.97;2391279;28;44687;-84
2022/08/09 06:20:04;;;;;;;;;7.00;7.00;;;;;20.65;50.80;102231.81;2384701;28;45248;-84
2022/08/09 06:21:14;;;;;;;;;10.00;7.50;;;;;20.65;51.08;102228.28;2381461;28;45460;-83
2022/08/09 06:22:25;;;;;;;;;9.25;9.25;;;;;20.66;51.04;102227.34;2386644;28;45450;-82
2022/08/09 06:23:35;;;;;;;;;7.25;7.25;;;;;20.66;50.84;102224.69;2393550;28;45420;-83
2022/08/09 06:24:46;;;;;;;;;8.25;7.25;;;;;20.65;50.85;102228.28;2383442;28;47941;-83
2022/08/09 06:25:56;;;;;;;;;8.75;7.50;;;;;20.66;51.42;102228.22;2386169;28;44982;-84
2022/08/09 06:27:07;;;;;;;;;7.50;7.50;;;;;20.67;51.01;102232.59;2383815;28;46583;-84
2022/08/09 06:28:17;;;;;;;;;9.75;7.25;;;;;20.69;50.97;102227.19;2386430;28;45369;-84
2022/08/09 06:29:27;;;;;;;;;9.00;7.00;;;;;20.71;51.01;102230.63;2383629;28;48235;-83
2022/08/09 06:30:38;;;;;;;;;6.00;6.00;;;;;20.73;51.15;102234.09;2384554;28;45243;-82
2022/08/09 06:31:48;;;;;;;;;8.00;8.00;;;;;20.76;51.49;102233.06;2384493;28;45398;-82
2022/08/09 06:32:58;;;;;;;;;5.00;5.00;;;;;20.75;50.75;102232.19;2377258;28;45251;-83
2022/08/09 06:34:09;;;;;;;;;7.50;7.50;;;;;20.76;50.84;102238.41;2384488;28;46367;-83
2022/08/09 06:35:19;;;;;;;;;9.00;7.50;;;;;20.78;51.03;102231.16;2392635;28;45353;-84
2022/08/09 06:36:30;;;;;;;;;7.00;7.00;;;;;20.78;51.12;102236.50;2393527;28;45307;-83
2022/08/09 06:37:40;;;;;;;;;8.75;8.75;;;;;20.79;51.01;102236.41;2393660;28;45218;-83
2022/08/09 06:38:50;;;;;;;;;4.00;4.00;;;;;20.79;50.81;102236.41;2393666;28;45359;-84
2022/08/09 06:40:00;;;;;;;;;7.50;7.50;;;;;20.82;50.66;102237.22;2392694;28;44573;-84
2022/08/09 06:41:11;;;;;;;;;9.25;8.75;;;;;20.80;51.16;102239.97;2392260;28;45436;-83
2022/08/09 06:42:22;;;;;;;;;10.50;8.75;;;;;20.85;50.91;102243.25;2393532;28;45466;-83
2022/08/09 06:43:32;;;;;;;;;4.75;4.00;;;;;20.87;50.91;102243.16;2383229;28;48071;-83
2022/08/09 06:44:42;;;;;;;;;6.50;6.50;;;;;20.90;50.77;102248.34;2383382;28;45465;-83
2022/08/09 06:45:53;;;;;;;;;9.75;9.25;;;;;20.90;50.88;102246.56;2384054;28;46499;-84
2022/08/09 06:47:04;;;;;;;;;11.25;9.50;;;;;20.91;50.80;102247.44;2374462;28;44836;-83
2022/08/09 06:48:14;;;;;;;;;9.75;8.50;;;;;20.94;50.61;102247.22;2381663;28;46349;-83
2022/08/09 06:49:24;;;;;;;;;8.25;7.50;;;;;20.96;50.82;102241.81;2387566;28;44745;-83
2022/08/09 06:50:35;;;;;;;;;6.00;6.00;;;;;21.00;50.63;102240.72;2393125;28;45495;-83
2022/08/09 06:51:45;;;;;;;;;9.00;8.75;;;;;21.04;50.76;102242.28;2393624;28;45228;-83
2022/08/09 06:52:55;;;;;;;;;7.00;7.00;;;;;21.08;50.78;102243.88;2383608;28;46088;-83
2022/08/09 06:54:06;;;;;;;;;9.75;8.75;;;;;21.11;50.48;102246.34;2386040;28;44724;-83
2022/08/09 06:55:19;;;;;;;;;7.50;7.00;;;;;21.13;50.55;102244.50;2393615;28;46294;-84
2022/08/09 06:56:29;;;;;;;;;11.75;9.75;;;;;21.18;50.34;102243.38;2393074;28;44667;-83
2022/08/09 06:57:40;;;;;;;;;8.75;8.00;;;;;21.21;50.83;102248.56;2383623;28;46839;-84
2022/08/09 06:58:50;;;;;;;;;10.75;9.00;;;;;21.23;50.24;102246.66;2386276;28;45262;-84
2022/08/09 07:00:01;;;;;;;;;14.75;12.25;;;;;21.26;50.27;102249.13;2393503;28;45505;-84
2022/08/09 07:01:11;;;;;;;;;10.50;9.25;;;;;21.28;49.71;102247.28;2383030;28;45256;-84
2022/08/09 07:02:22;;;;;;;;;10.25;8.25;;;;;21.30;50.02;102250.72;2386013;28;46143;-83
2022/08/09 07:03:33;;;;;;;;;9.75;9.00;;;;;21.31;50.76;102255.09;2383696;28;45148;-83
2022/08/09 07:04:44;;;;;;;;;4.25;3.50;;;;;21.32;49.92;102246.16;2386584;28;45480;-83
2022/08/09 07:05:56;;;;;;;;;10.00;10.00;;;;;21.35;50.08;102256.69;2393236;28;45204;-83
2022/08/09 07:07:07;;;;;;;;;11.75;10.00;;;;;21.37;50.20;102256.59;2393308;28;46150;-83
2022/08/09 07:08:17;;;;;;;;;10.00;10.00;;;;;21.41;50.01;102259.97;2392648;28;45428;-83
2022/08/09 07:09:28;;;;;;;;;10.50;10.50;;;;;21.42;49.81;102253.66;2390364;28;46242;-83
2022/08/09 07:10:39;;;;;;;;;11.75;8.00;;;;;21.44;50.15;102254.44;2382766;28;44810;-83
2022/08/09 07:11:49;;;;;;;;;9.50;7.75;;;;;21.48;49.59;102256.84;2386120;28;45576;-84
2022/08/09 07:12:59;;;;;;;;;11.00;10.00;;;;;21.52;49.98;102254.88;2383214;28;45418;-84
2022/08/09 07:14:13;;;;;;;;;12.50;9.50;;;;;21.55;49.42;102257.38;2376746;28;47130;-83
2022/08/09 07:15:23;;;;;;;;;8.50;8.50;;;;;21.58;49.66;102251.84;2386402;28;45251;-83
2022/08/09 07:16:34;;;;;;;;;8.50;8.00;;;;;21.63;49.87;102253.41;2393104;28;45466;-83
2022/08/09 07:17:44;;;;;;;;;8.50;6.75;;;;;21.66;49.51;102255.88;2393567;28;45163;-82
2022/08/09 07:18:54;;;;;;;;;10.50;8.50;;;;;21.68;49.05;102257.53;2393407;28;46442;-83
2022/08/09 07:20:06;;;;;;;;;6.00;5.00;;;;;21.70;49.11;102249.44;2393349;28;45607;-83
2022/08/09 07:21:17;;;;;;;;;9.00;7.75;;;;;21.71;49.13;102251.16;2393514;28;46531;-83
2022/08/09 07:22:27;;;;;;;;;7.25;7.25;;;;;21.74;49.19;102255.47;2384533;28;45155;-82
2022/08/09 07:23:37;;;;;;;;;7.50;5.00;;;;;21.77;49.24;102256.16;2383976;28;46130;-83
2022/08/09 07:24:48;;;;;;;;;4.00;4.00;;;;;21.80;49.51;102260.47;2379963;28;44818;-81
2022/08/09 07:25:58;;;;;;;;;8.00;6.75;;;;;21.81;49.05;102260.38;2386057;28;45296;-83
2022/08/09 07:27:10;;;;;;;;;10.25;9.75;;;;;21.84;48.89;102261.16;2393623;28;45323;-82
2022/08/09 07:28:20;;;;;;;;;5.00;5.00;;;;;21.86;49.20;102259.25;2393348;28;45404;-83
2022/08/09 07:29:31;;;;;;;;;9.00;7.75;;;;;21.88;49.24;102263.59;2393512;28;45314;-83
2022/08/09 07:30:41;;;;;;;;;10.75;9.50;;;;;21.90;48.99;102263.53;2392802;28;45311;-84
2022/08/09 07:31:52;;;;;;;;;8.00;8.00;;;;;21.92;48.32;102264.28;2386897;28;45210;-83
2022/08/09 07:33:02;;;;;;;;;13.25;8.50;;;;;21.96;48.54;102265.84;2386153;28;45448;-84
2022/08/09 07:34:12;;;;;;;;;10.00;8.25;;;;;21.98;48.59;102257.72;2393298;28;45283;-83
2022/08/09 07:35:23;;;;;;;;;6.50;6.00;;;;;22.03;48.35;102256.50;2393423;28;45271;-83
2022/08/09 07:36:34;;;;;;;;;9.50;8.00;;;;;22.07;48.27;102261.69;2393165;28;44747;-83
2022/08/09 07:37:45;;;;;;;;;7.25;6.00;;;;;22.12;48.36;102256.91;2382911;28;47849;-83
2022/08/09 07:38:56;;;;;;;;;6.00;5.25;;;;;22.15;47.95;102256.72;2383170;28;45492;-83
2022/08/09 07:40:07;;;;;;;;;8.00;8.00;;;;;22.21;47.95;102253.69;2393103;28;45573;-83
2022/08/09 07:41:18;;;;;;;;;7.50;6.50;;;;;22.24;48.22;102260.69;2393122;28;45282;-83
2022/08/09 07:42:28;;;;;;;;;7.00;7.00;;;;;22.25;47.89;102265.94;2393194;28;45447;-84
2022/08/09 07:43:40;;;;;;;;;7.00;6.00;;;;;22.30;47.73;102260.31;2393215;28;44835;-83
2022/08/09 07:44:50;;;;;;;;;8.75;8.75;;;;;22.32;48.02;102260.25;2382405;28;48086;-83
2022/08/09 07:46:00;;;;;;;;;7.50;7.50;;;;;22.36;47.74;102265.31;2391450;28;45271;-84
2022/08/09 07:47:11;;;;;;;;;7.50;6.00;;;;;22.41;47.52;102258.81;2393104;28;45485;-84
2022/08/09 07:48:21;;;;;;;;;8.75;7.00;;;;;22.44;47.73;102267.53;2390048;28;45221;-83
2022/08/09 07:49:31;;;;;;;;;8.00;7.75;;;;;22.44;47.44;102254.16;2384029;28;46246;-88
2022/08/09 07:50:42;;;;;;;;;10.25;9.25;;;;;22.46;47.19;102260.28;2392949;28;45274;-80
2022/08/09 07:51:52;;;;;;;;;10.50;9.25;;;;;22.47;47.16;102253.94;2392539;28;45427;-83
2022/08/09 07:53:03;;;;;;;;;8.75;8.00;;;;;22.48;47.43;102255.69;2393312;28;45223;-82
2022/08/09 07:54:15;;;;;;;;;7.50;6.50;;;;;22.49;47.44;102256.56;2389748;28;45397;-85
2022/08/09 07:55:25;;;;;;;;;5.75;5.75;;;;;22.52;47.05;102252.84;2381958;28;45422;-83
2022/08/09 07:56:37;;;;;;;;;11.00;9.00;;;;;22.55;47.07;102257.97;2376272;28;47074;-81
2022/08/09 07:57:49;;;;;;;;;5.50;5.50;;;;;22.58;47.21;102255.13;2386296;28;45342;-84
2022/08/09 07:59:00;;;;;;;;;7.50;7.50;;;;;22.60;47.51;102248.72;2393215;28;45397;-84
2022/08/09 08:00:11;;;;;;;;;7.75;7.50;;;;;22.66;47.28;102250.16;2387681;28;45228;-84
2022/08/09 08:01:21;;;;;;;;;9.50;6.25;;;;;22.69;47.23;102252.69;2392369;28;45432;-84
2022/08/09 08:02:32;;;;;;;;;8.00;6.25;;;;;22.74;46.98;102247.06;2383349;28;45286;-84
2022/08/09 08:03:42;;;;;;;;;9.00;8.00;;;;;22.77;47.28;102249.53;2385794;28;45331;-84
2022/08/09 08:04:52;;;;;;;;;8.75;7.50;;;;;22.82;47.10;102254.59;2383236;28;45148;-84
2022/08/09 08:06:04;;;;;;;;;10.00;9.00;;;;;22.85;46.91;102250.88;2386007;28;46371;-84
2022/08/09 08:07:14;;;;;;;;;9.50;8.00;;;;;22.89;46.57;102252.44;2393278;28;45405;-84
2022/08/09 08:08:25;;;;;;;;;6.50;6.00;;;;;22.94;47.10;102255.66;2393231;28;46355;-84
2022/08/09 08:09:35;;;;;;;;;7.75;7.00;;;;;22.98;46.40;102257.22;2392355;28;44782;-83
2022/08/09 08:10:46;;;;;;;;;10.25;6.25;;;;;23.01;46.70;102256.16;2392638;28;45437;-83
2022/08/09 08:11:56;;;;;;;;;8.00;8.00;;;;;23.03;46.48;102257.78;2390749;28;45169;-84
2022/08/09 08:13:06;;;;;;;;;5.75;5.75;;;;;23.06;46.18;102259.41;2392759;28;45348;-84
2022/08/09 08:14:17;;;;;;;;;12.50;8.00;;;;;23.07;46.15;102254.88;2394130;28;45444;-84
2022/08/09 08:15:27;;;;;;;;;9.75;8.00;;;;;23.07;45.58;102255.75;2393525;28;45473;-83
2022/08/09 08:16:37;;;;;;;;;8.75;7.75;;;;;23.09;45.79;102259.19;2389914;28;45154;-84
2022/08/09 08:17:52;;;;;;;;;9.00;9.00;;;;;23.09;46.01;102259.19;2385336;28;46475;-84
2022/08/09 08:19:02;;;;;;;;;7.00;7.00;;;;;23.09;46.41;102259.19;2385662;28;45230;-84
2022/08/09 08:20:13;;;;;;;;;9.00;9.00;;;;;23.10;45.77;102266.31;2385310;28;46175;-84
2022/08/09 08:21:24;;;;;;;;;6.50;6.50;;;;;23.13;45.75;102265.25;2385664;28;45223;-83
2022/08/09 08:22:34;;;;;;;;;4.00;4.00;;;;;23.14;45.88;102256.22;2385437;28;45479;-84
2022/08/09 08:23:44;;;;;;;;;8.50;7.00;;;;;23.20;45.78;102261.22;2387623;28;44622;-82
2022/08/09 08:24:55;;;;;;;;;7.00;7.00;;;;;23.25;45.59;102267.16;2394884;28;45195;-83
2022/08/09 08:26:05;;;;;;;;;7.25;6.00;;;;;23.30;45.65;102266.88;2384562;28;45440;-84
2022/08/09 08:27:16;;;;;;;;;9.00;6.75;;;;;23.31;45.31;102262.38;2387417;28;46302;-84
2022/08/09 08:28:26;;;;;;;;;8.00;8.00;;;;;23.34;45.06;102263.00;2394893;28;45337;-84
2022/08/09 08:29:37;;;;;;;;;7.25;7.25;;;;;23.37;45.13;102265.50;2384653;28;48026;-85
2022/08/09 08:30:47;;;;;;;;;7.25;7.25;;;;;23.38;44.93;102263.69;2386691;28;45436;-84
2022/08/09 08:31:58;;;;;;;;;8.75;8.00;;;;;23.40;44.63;102263.59;2394406;28;45366;-84
2022/08/09 08:33:08;;;;;;;;;7.25;7.25;;;;;23.44;45.18;102265.09;2393969;28;44681;-84
2022/08/09 08:34:18;;;;;;;;;9.50;9.50;;;;;23.46;45.32;102260.50;2393599;28;45417;-84
2022/08/09 08:35:29;;;;;;;;;13.00;10.50;;;;;23.49;44.88;102261.19;2394623;28;45269;-84
2022/08/09 08:36:39;;;;;;;;;11.25;10.25;;;;;23.53;44.76;102272.63;2393048;28;45418;-84
2022/08/09 08:37:50;;;;;;;;;9.00;8.50;;;;;23.56;44.94;102267.03;2391574;28;45162;-84
2022/08/09 08:39:01;;;;;;;;;10.00;8.25;;;;;23.59;44.83;102263.28;2392161;28;46532;-84
2022/08/09 08:40:12;;;;;;;;;9.50;9.25;;;;;23.63;44.94;102262.13;2385557;28;44531;-84
2022/08/09 08:41:23;;;;;;;;;9.75;9.00;;;;;23.67;44.95;102268.16;2393735;28;46540;-84
2022/08/09 08:42:33;;;;;;;;;11.00;11.00;;;;;23.73;44.47;102267.75;2386345;28;45470;-84
2022/08/09 08:43:44;;;;;;;;;10.50;8.25;;;;;23.76;44.32;102259.50;2379552;28;47392;-84
2022/08/09 08:44:59;;;;;;;;;10.00;9.00;;;;;23.79;44.39;102263.81;2378535;28;45293;-84
2022/08/09 08:46:11;;;;;;;;;9.75;9.00;;;;;23.81;44.58;102260.06;2380893;28;47124;-84
2022/08/09 08:47:22;;;;;;;;;10.50;9.25;;;;;23.85;44.47;102263.41;2378244;28;45196;-84
2022/08/09 08:48:34;;;;;;;;;8.00;7.00;;;;;23.87;44.25;102255.25;2387646;28;46281;-84
2022/08/09 08:49:46;;;;;;;;;11.25;8.75;;;;;23.89;44.05;102258.69;2384709;28;44706;-84
2022/08/09 08:50:57;;;;;;;;;10.00;7.50;;;;;23.91;44.65;102254.06;2387542;28;45287;-84
2022/08/09 08:52:09;;;;;;;;;10.25;7.50;;;;;23.92;43.84;102255.81;2384321;28;45322;-84
2022/08/09 08:53:19;;;;;;;;;8.50;8.50;;;;;23.95;44.02;102255.63;2384326;28;47044;-84
2022/08/09 08:54:30;;;;;;;;;11.00;8.50;;;;;23.98;43.92;102259.91;2391692;28;45253;-84
2022/08/09 08:55:42;;;;;;;;;8.00;7.00;;;;;24.02;44.21;102258.75;2394544;28;46491;-84
2022/08/09 08:56:53;;;;;;;;;7.25;7.25;;;;;24.04;44.09;102262.19;2393601;28;45192;-85
2022/08/09 08:58:04;;;;;;;;;7.50;7.00;;;;;24.05;43.85;102250.50;2390915;28;46276;-84
2022/08/09 08:59:15;;;;;;;;;8.75;7.00;;;;;24.07;43.74;102250.38;2387706;28;45292;-84
2022/08/09 09:00:30;;;;;;;;;9.00;6.75;;;;;24.12;44.04;102251.81;2379396;28;47865;-84
2022/08/09 09:01:42;;;;;;;;;6.75;6.75;;;;;24.14;43.79;102252.56;2384091;28;45521;-84
2022/08/09 09:02:57;;;;;;;;;5.00;4.25;;;;;24.18;43.89;102247.81;2386988;28;47590;-84
2022/08/09 09:04:10;;;;;;;;;8.50;8.50;;;;;24.23;43.88;102244.81;2391074;28;45333;-84
2022/08/09 09:05:23;;;;;;;;;3.75;1.50;;;;;24.27;43.18;102254.44;2384189;28;47160;-84
2022/08/09 09:06:36;;;;;;;;;8.25;5.75;;;;;24.31;43.19;102249.69;2370747;28;44645;-84
2022/08/09 09:07:49;;;;;;;;;8.00;7.50;;;;;24.30;43.15;102245.31;2387029;28;47089;-84
2022/08/09 09:09:01;;;;;;;;;8.00;6.50;;;;;24.32;43.40;102256.81;2382356;28;45180;-84
2022/08/09 09:10:12;;;;;;;;;10.25;7.25;;;;;24.32;43.15;102251.44;2384237;28;46371;-84
2022/08/09 09:11:24;;;;;;;;;7.25;7.25;;;;;24.35;42.96;102257.44;2387868;28;45176;-84
2022/08/09 09:12:35;;;;;;;;;7.00;7.00;;;;;24.38;43.19;102248.31;2392018;28;46283;-84
2022/08/09 09:13:48;;;;;;;;;7.25;6.25;;;;;24.42;43.39;102251.66;2375275;28;45518;-84
2022/08/09 09:15:00;;;;;;;;;4.50;4.50;;;;;24.43;43.30;102248.84;2380414;28;48340;-84
2022/08/09 09:16:10;;;;;;;;;6.00;6.00;;;;;24.48;43.09;102251.22;2392883;28;45342;-84
2022/08/09 09:17:21;;;;;;;;;9.75;8.00;;;;;24.52;42.53;102251.88;2393113;28;45468;-85
2022/08/09 09:18:31;;;;;;;;;6.25;6.00;;;;;24.55;42.57;102252.53;2393815;28;45492;-85
2022/08/09 09:19:43;;;;;;;;;7.50;7.00;;;;;24.59;42.90;102247.81;2394376;28;45251;-85
2022/08/09 09:20:53;;;;;;;;;7.00;7.00;;;;;24.61;42.57;102249.44;2393935;28;45461;-85
2022/08/09 09:22:08;;;;;;;;;9.00;6.50;;;;;24.67;42.01;102260.72;2393188;28;45286;-85
2022/08/09 09:23:38;;;;;;;;;6.75;6.50;;;;;24.68;42.89;102248.97;2391453;28;45409;-86
2022/08/09 09:24:53;;;;;;;;;6.50;6.50;;;;;24.70;42.15;102250.59;2383431;28;46569;-86
2022/08/09 09:26:03;;;;;;;;;5.50;5.50;;;;;24.75;42.11;102246.72;2379877;28;45494;-85
2022/08/09 09:27:25;;;;;;;;;2.00;1.00;;;;;24.77;41.68;102250.19;2382939;28;48335;-86
2022/08/09 09:28:36;;;;;;;;;9.00;8.00;;;;;24.80;42.16;102245.44;2388797;28;45279;-85
2022/08/09 09:29:47;;;;;;;;;6.00;5.75;;;;;24.84;41.90;102246.09;2392287;28;45667;-85
2022/08/09 09:30:58;;;;;;;;;9.25;8.00;;;;;24.86;41.51;102249.53;2384913;28;45209;-86
2022/08/09 09:32:10;;;;;;;;;5.00;5.00;;;;;24.91;41.97;102243.81;2376685;28;47210;-86
2022/08/09 09:33:30;;;;;;;;;10.25;6.50;;;;;24.96;42.06;102249.72;2384772;28;44667;-86
2022/08/09 09:34:42;;;;;;;;;7.00;6.25;;;;;25.00;42.24;102245.00;2384561;28;45249;-86
2022/08/09 09:35:55;;;;;;;;;7.50;7.50;;;;;25.02;41.82;102237.69;2376124;28;44840;-85
2022/08/09 09:37:05;;;;;;;;;5.75;5.75;;;;;25.05;41.71;102240.16;2384149;28;46070;-85
2022/08/09 09:38:15;;;;;;;;;7.00;7.00;;;;;25.10;41.69;102235.31;2389527;28;45326;-86
2022/08/09 09:39:28;;;;;;;;;7.75;6.50;;;;;25.13;41.99;102240.50;2393055;28;45326;-85
2022/08/09 09:40:45;;;;;;;;;7.00;7.00;;;;;25.14;40.84;102241.31;2392131;28;45440;-85
2022/08/09 09:41:57;;;;;;;;;8.50;6.00;;;;;25.18;41.35;102242.84;2393235;28;47042;-86
2022/08/09 09:43:07;;;;;;;;;7.00;5.50;;;;;25.22;41.33;102249.72;2393923;28;45194;-85
2022/08/09 09:44:29;;;;;;;;;5.50;5.50;;;;;25.25;40.56;102245.94;2393948;28;46264;-86
2022/08/09 09:45:50;;;;;;;;;8.75;6.50;;;;;25.27;41.06;102246.69;2392299;28;45226;-86
2022/08/09 09:47:06;;;;;;;;;5.50;5.50;;;;;25.31;40.97;102240.09;2393363;28;48119;-86
2022/08/09 09:48:19;;;;;;;;;7.25;7.00;;;;;25.32;41.27;102233.75;2383926;28;46207;-85
2022/08/09 09:49:30;;;;;;;;;7.50;6.50;;;;;25.37;40.83;102236.97;2386104;28;45523;-86
2022/08/09 09:50:42;;;;;;;;;5.50;5.50;;;;;25.41;40.47;102237.59;2385822;28;44626;-85
2022/08/09 09:52:01;;;;;;;;;9.00;5.00;;;;;25.46;40.60;102234.59;2383920;28;47286;-86
2022/08/09 09:53:26;;;;;;;;;7.50;6.00;;;;;25.50;41.08;102236.94;2374695;28;45292;-86
2022/08/09 09:54:47;;;;;;;;;4.50;4.50;;;;;25.54;40.44;102237.56;2378173;28;47957;-86
2022/08/09 09:56:01;;;;;;;;;7.50;6.25;;;;;25.58;40.63;102233.66;2388252;28;45436;-86
2022/08/09 09:57:22;;;;;;;;;6.50;6.50;;;;;25.62;40.33;102234.28;2393752;28;46590;-86
2022/08/09 09:58:44;;;;;;;;;7.75;7.75;;;;;25.65;40.03;102230.53;2381108;28;45255;-86
2022/08/09 09:59:54;;;;;;;;;7.00;7.00;;;;;25.70;40.47;102237.28;2388038;28;45372;-86
2022/08/09 10:01:19;;;;;;;;;6.75;6.75;;;;;25.75;39.86;102236.97;2393651;28;45527;-85
2022/08/09 10:02:44;;;;;;;;;6.25;6.25;;;;;25.78;39.79;102219.72;2393990;28;46953;-85
2022/08/09 10:03:55;;;;;;;;;7.00;6.25;;;;;25.82;39.75;102231.97;2385440;28;44583;-86
2022/08/09 10:05:07;;;;;;;;;6.00;6.00;;;;;25.87;39.43;102228.94;2376150;28;48004;-85
2022/08/09 10:06:18;;;;;;;;;6.50;6.50;;;;;25.90;39.94;102224.19;2384216;28;46085;-86
2022/08/09 10:07:29;;;;;;;;;6.75;6.75;;;;;25.94;39.53;102235.56;2390290;28;48013;-86
2022/08/09 10:08:42;;;;;;;;;5.50;5.50;;;;;26.00;39.50;102228.88;2389200;28;45388;-86
2022/08/09 10:09:56;;;;;;;;;6.00;5.50;;;;;26.04;39.46;102224.97;2386478;28;47427;-87
2022/08/09 10:11:23;;;;;;;;;6.00;6.00;;;;;26.10;39.81;102226.34;2377598;28;45441;-86
2022/08/09 10:12:36;;;;;;;;;6.25;6.00;;;;;26.12;39.36;102219.84;2392733;28;47238;-86
2022/08/09 10:13:47;;;;;;;;;7.00;7.00;;;;;26.16;38.96;102228.53;2383215;28;45504;-86
2022/08/09 10:15:14;;;;;;;;;7.00;7.00;;;;;26.18;39.06;102219.38;2381823;28;45660;-86
2022/08/09 10:16:30;;;;;;;;;6.50;6.50;;;;;26.24;38.78;102218.03;2385370;28;44747;-86
2022/08/09 10:17:44;;;;;;;;;7.00;7.00;;;;;26.27;38.52;102215.09;2381609;28;46370;-86
2022/08/09 10:19:14;;;;;;;;;6.50;6.00;;;;;26.32;38.52;102213.91;2377222;28;45300;-86
2022/08/09 10:20:26;;;;;;;;;7.50;7.25;;;;;26.36;38.26;102209.97;2384657;28;45406;-86
2022/08/09 10:21:46;;;;;;;;;7.00;6.50;;;;;26.39;38.28;102209.75;2384603;28;44800;-86
2022/08/09 10:22:59;;;;;;;;;8.00;5.00;;;;;26.40;38.35;102211.44;2383614;28;47002;-86
2022/08/09 10:24:10;;;;;;;;;8.75;6.00;;;;;26.42;37.61;102209.50;2386779;28;45415;-86
2022/08/09 10:25:25;;;;;;;;;7.00;6.00;;;;;26.46;38.64;102210.13;2393233;28;46516;-86
2022/08/09 10:26:35;;;;;;;;;7.75;7.75;;;;;26.47;37.79;102218.09;2392821;28;44728;-85
2022/08/09 10:27:45;;;;;;;;;5.00;5.00;;;;;26.49;38.14;102201.81;2391494;28;46334;-85
2022/08/09 10:28:57;;;;;;;;;3.00;3.00;;;;;26.52;38.33;102204.28;2382167;28;46035;-87
2022/08/09 10:30:08;;;;;;;;;6.50;6.50;;;;;26.54;37.71;102214.94;2376395;28;47886;-87
2022/08/09 10:31:19;;;;;;;;;7.50;6.00;;;;;26.52;37.96;102215.06;2386108;28;45329;-86
2022/08/09 10:32:30;;;;;;;;;6.00;5.00;;;;;26.55;38.54;102208.53;2383143;28;47169;-86
2022/08/09 10:33:41;;;;;;;;;4.25;4.25;;;;;26.59;38.13;102219.00;2379474;28;45331;-86